KFWB

Branson West Municipal - Emerson Field Airport

Branson West, Missouri, USA
METAR KFWB 170035Z AUTO 01006KT 10SM CLR 10/02 A3025 RMK AO2
Observed Flight Rules
Dec-17 @ 00:35 UTC (41 minutes ago) Visual Flight Rules
Wind Visibility Clouds
10° at 6 knots 10 miles
  • Clear skies
Temperatures Readings
Current 10°C / 50°F
Dewpoint 2°C / 36°F
Humidity 58%
Altimeter 30.25" Hg
Pressure 1024 hPa
Elevation 406
METAR KFWB 170035Z AUTO 01006KT 10SM CLR 10/02 A3025 RMK AO2
Observed Flight Rules
Dec-17 @ 00:35 UTC
(41 minutes ago)
VFR
Wind Visibility
10° at 6 knots 10 miles
Clouds
  • Clear skies
Temperature Dewpoint
10°C / 50°F 2°C / 36°F
Humidity Altimeter Pressure
58% 30.25" Hg 1024 hPa